createdAt,value
2024-01-18T00:00:52.177Z,98477.44
2024-01-18T00:03:22.151Z,98494.16
2024-01-18T00:05:54.118Z,98510.31
2024-01-18T00:08:29.696Z,98516.38
2024-01-18T00:10:59.928Z,98528.50
2024-01-18T00:13:29.749Z,98540.44
2024-01-18T00:15:59.600Z,98529.06
2024-01-18T00:18:29.712Z,98536.28
2024-01-18T00:20:59.932Z,98531.78
2024-01-18T00:23:32.509Z,98522.72
2024-01-18T00:26:03.499Z,98527.47
2024-01-18T00:28:33.360Z,98516.69
2024-01-18T00:31:03.262Z,98506.91
2024-01-18T00:33:33.521Z,98528.41
2024-01-18T00:36:03.635Z,98542.47
2024-01-18T00:38:37.436Z,98556.41
2024-01-18T00:41:07.463Z,98548.53
2024-01-18T00:43:37.265Z,98544.56
2024-01-18T00:46:07.937Z,98541.31
2024-01-18T00:48:37.855Z,98528.50
2024-01-18T00:51:08.506Z,98550.31
2024-01-18T00:53:40.957Z,98561.63
2024-01-18T00:56:13.028Z,98564.88
2024-01-18T00:58:42.885Z,98567.38
2024-01-18T01:01:13.258Z,98565.44
2024-01-18T01:03:43.400Z,98566.06
2024-01-18T01:06:14.239Z,98565.44
2024-01-18T01:08:46.644Z,98569.13
2024-01-18T01:11:16.742Z,98573.56
2024-01-18T01:13:46.784Z,98584.84
2024-01-18T01:16:17.206Z,98585.47
2024-01-18T01:18:47.438Z,98563.50
2024-01-18T01:21:17.377Z,98582.81
2024-01-18T01:23:50.564Z,98593.03
2024-01-18T01:26:20.878Z,98590.16
2024-01-18T01:28:51.411Z,98603.50
2024-01-18T01:31:21.453Z,98604.91
2024-01-18T01:33:51.962Z,98620.56
2024-01-18T01:36:19.424Z,98614.19
2024-01-18T01:38:52.007Z,98632.75
2024-01-18T01:41:22.207Z,98635.47
2024-01-18T01:44:02.769Z,98648.91
2024-01-18T01:46:33.342Z,98625.91
2024-01-18T01:49:05.420Z,98634.00
2024-01-18T01:51:40.840Z,98632.34
2024-01-18T01:54:15.027Z,98640.41
2024-01-18T01:56:49.230Z,98629.41
2024-01-18T01:59:20.521Z,98653.59
2024-01-18T02:01:50.574Z,98650.41
2024-01-18T02:04:21.404Z,98646.31
2024-01-18T02:06:55.364Z,98652.56
2024-01-18T02:09:28.687Z,98656.72
2024-01-18T02:11:58.740Z,98660.19
2024-01-18T02:14:29.001Z,98653.66
2024-01-18T02:16:58.817Z,98662.75
2024-01-18T02:19:29.118Z,98661.84
2024-01-18T02:21:59.030Z,98670.44
2024-01-18T02:24:39.769Z,98673.53
2024-01-18T02:27:12.509Z,98680.22
2024-01-18T02:29:42.438Z,98677.66
2024-01-18T02:32:12.469Z,98688.53
2024-01-18T02:34:44.810Z,98675.94
2024-01-18T02:37:15.980Z,98682.63
2024-01-18T02:39:45.967Z,98687.63
2024-01-18T02:42:19.034Z,98693.81
2024-01-18T02:44:49.221Z,98695.16
2024-01-18T02:47:19.080Z,98692.41
2024-01-18T02:49:48.915Z,98700.94
2024-01-18T02:52:18.718Z,98692.78
2024-01-18T02:54:48.782Z,98680.09
2024-01-18T02:57:21.438Z,98683.63
2024-01-18T02:59:51.292Z,98681.06
2024-01-18T03:02:21.689Z,98673.25
2024-01-18T03:04:51.816Z,98684.63
2024-01-18T03:07:21.719Z,98682.41
2024-01-18T03:09:52.584Z,98667.41
2024-01-18T03:12:25.067Z,98651.78
2024-01-18T03:14:56.273Z,98683.56
2024-01-18T03:17:26.270Z,98687.56
2024-01-18T03:19:57.357Z,98691.75
2024-01-18T03:22:27.906Z,98695.44
2024-01-18T03:24:57.757Z,98695.13
2024-01-18T03:27:31.337Z,98698.63
2024-01-18T03:30:01.317Z,98699.56
2024-01-18T03:32:31.448Z,98690.28
2024-01-18T03:35:01.577Z,98694.41
2024-01-18T03:37:31.923Z,98700.34
2024-01-18T03:40:01.734Z,98701.16
2024-01-18T03:42:34.449Z,98704.50
2024-01-18T03:45:04.282Z,98707.34
2024-01-18T03:47:34.477Z,98708.31
2024-01-18T03:50:04.430Z,98707.34
2024-01-18T03:52:34.716Z,98698.84
2024-01-18T03:55:06.667Z,98699.81
2024-01-18T03:57:41.003Z,98699.97
2024-01-18T04:00:13.786Z,98700.16
2024-01-18T04:02:45.729Z,98698.06
2024-01-18T04:05:15.631Z,98705.91
2024-01-18T04:07:45.458Z,98706.25
2024-01-18T04:10:15.477Z,98713.75
2024-01-18T04:12:48.621Z,98721.28
2024-01-18T04:15:18.783Z,98713.31
2024-01-18T04:17:48.849Z,98720.81
2024-01-18T04:20:23.281Z,98720.63
2024-01-18T04:22:53.193Z,98726.75
2024-01-18T04:25:23.307Z,98723.72
2024-01-18T04:27:55.944Z,98718.44
2024-01-18T04:30:26.423Z,98723.88
2024-01-18T04:32:56.744Z,98724.50
2024-01-18T04:35:26.592Z,98714.75
2024-01-18T04:37:56.405Z,98728.31
2024-01-18T04:40:27.076Z,98723.38
2024-01-18T04:43:01.768Z,98727.97
2024-01-18T04:45:31.735Z,98721.75
2024-01-18T04:48:02.625Z,98720.44
2024-01-18T04:50:32.483Z,98718.53
2024-01-18T04:53:02.560Z,98723.00
2024-01-18T04:55:33.649Z,98732.16
2024-01-18T04:58:06.562Z,98731.19
2024-01-18T05:00:36.579Z,98735.81
2024-01-18T05:03:08.831Z,98753.47
2024-01-18T05:05:40.480Z,98726.13
2024-01-18T05:08:10.518Z,98747.03
2024-01-18T05:10:40.818Z,98743.34
2024-01-18T05:13:13.478Z,98744.66
2024-01-18T05:15:43.350Z,98757.63
2024-01-18T05:18:13.725Z,98755.72
2024-01-18T05:20:43.782Z,98750.72
2024-01-18T05:23:13.821Z,98750.22
2024-01-18T05:25:43.729Z,98748.78
2024-01-18T05:28:16.600Z,98758.28
2024-01-18T05:30:46.530Z,98767.03
2024-01-18T05:33:16.741Z,98771.50
2024-01-18T05:35:46.932Z,98769.59
2024-01-18T05:38:16.766Z,98772.78
2024-01-18T05:40:47.937Z,98763.84
2024-01-18T05:43:20.574Z,98771.84
2024-01-18T05:45:51.316Z,98775.56
2024-01-18T05:48:21.408Z,98775.56
2024-01-18T05:50:51.572Z,98778.28
2024-01-18T05:53:21.489Z,98782.59
2024-01-18T05:55:51.329Z,98784.38
2024-01-18T05:58:24.590Z,98777.16
2024-01-18T06:00:54.930Z,98788.38
2024-01-18T06:03:24.988Z,98794.75
2024-01-18T06:05:55.361Z,98789.00
2024-01-18T06:08:25.216Z,98777.84
2024-01-18T06:10:55.368Z,98766.84
2024-01-18T06:13:27.835Z,98804.88
2024-01-18T06:15:57.735Z,98814.16
2024-01-18T06:18:27.838Z,98816.06
2024-01-18T06:20:58.143Z,98826.63
2024-01-18T06:23:27.994Z,98822.31
2024-01-18T06:25:59.023Z,98825.66
2024-01-18T06:28:32.607Z,98813.66
2024-01-18T06:31:03.432Z,98820.88
2024-01-18T06:33:33.464Z,98832.72
2024-01-18T06:36:04.282Z,98823.25
2024-01-18T06:38:36.420Z,98837.81
2024-01-18T06:41:09.166Z,98832.06
2024-01-18T06:43:41.819Z,98846.00
2024-01-18T06:46:17.681Z,98858.00
2024-01-18T06:48:55.258Z,98854.78
2024-01-18T06:51:25.463Z,98858.78
2024-01-18T06:53:55.514Z,98833.66
2024-01-18T06:56:25.410Z,98855.25
2024-01-18T06:58:58.151Z,98876.19
2024-01-18T07:01:28.146Z,98871.25
2024-01-18T07:03:58.065Z,98876.22
2024-01-18T07:06:28.032Z,98885.78
2024-01-18T07:08:58.646Z,98890.75
2024-01-18T07:11:28.522Z,98880.97
2024-01-18T07:14:01.024Z,98886.28
2024-01-18T07:16:31.141Z,98862.41
2024-01-18T07:19:01.245Z,98894.91
2024-01-18T07:21:31.310Z,98906.41
2024-01-18T07:24:01.487Z,98908.63
2024-01-18T07:26:31.421Z,98898.06
2024-01-18T07:29:05.104Z,98906.53
2024-01-18T07:31:35.578Z,98910.81
2024-01-18T07:34:06.533Z,98925.50
2024-01-18T07:36:36.534Z,98926.16
2024-01-18T07:39:06.908Z,98922.63
2024-01-18T07:41:38.406Z,98919.09
2024-01-18T07:44:11.327Z,98918.09
2024-01-18T07:46:41.450Z,98922.59
2024-01-18T07:49:11.390Z,98924.50
2024-01-18T07:51:41.886Z,98932.16
2024-01-18T07:54:11.780Z,98937.28
2024-01-18T07:56:41.862Z,98940.84
2024-01-18T07:59:14.396Z,98959.38
2024-01-18T08:01:45.139Z,98956.78
2024-01-18T08:04:15.106Z,98961.41
2024-01-18T08:06:45.942Z,98966.50
2024-01-18T08:09:15.944Z,98967.72
2024-01-18T08:11:45.861Z,98978.38
2024-01-18T08:14:18.524Z,98973.56
2024-01-18T08:16:48.580Z,98976.34
2024-01-18T08:19:19.615Z,98988.50
2024-01-18T08:21:49.693Z,98968.94
2024-01-18T08:24:20.066Z,98983.31
2024-01-18T08:26:50.000Z,98975.16
2024-01-18T08:29:22.973Z,98972.56
2024-01-18T08:31:53.151Z,98972.19
2024-01-18T08:34:23.425Z,98979.72
2024-01-18T08:36:54.136Z,98987.66
2024-01-18T08:39:24.407Z,98982.84
2024-01-18T08:41:57.842Z,98987.44
2024-01-18T08:44:30.428Z,98994.09
2024-01-18T08:47:00.771Z,99001.75
2024-01-18T08:49:30.754Z,99015.50
2024-01-18T08:52:01.345Z,99018.44
2024-01-18T08:54:31.741Z,99010.63
2024-01-18T08:57:01.823Z,99026.16
2024-01-18T08:59:35.182Z,99017.72
2024-01-18T09:02:13.915Z,99006.72
2024-01-18T09:04:48.890Z,99011.59
2024-01-18T09:07:19.302Z,99037.38
2024-01-18T09:09:49.666Z,99033.03
2024-01-18T09:12:19.870Z,99023.63
2024-01-18T09:14:52.436Z,99028.84
2024-01-18T09:17:22.262Z,99004.31
2024-01-18T09:19:52.406Z,99026.63
2024-01-18T09:22:22.952Z,99036.72
2024-01-18T09:24:56.090Z,99037.25
2024-01-18T09:27:28.130Z,99042.22
2024-01-18T09:30:00.663Z,99042.88
2024-01-18T09:32:31.432Z,99049.78
2024-01-18T09:35:02.349Z,99057.47
2024-01-18T09:37:33.040Z,99064.72
2024-01-18T09:40:03.146Z,99077.53
2024-01-18T09:42:36.510Z,99064.59
2024-01-18T09:45:13.263Z,99080.25
2024-01-18T09:47:44.531Z,99065.56
2024-01-18T09:50:15.988Z,99076.44
2024-01-18T09:52:46.886Z,99087.81
2024-01-18T09:55:16.910Z,99078.38
2024-01-18T09:57:51.523Z,99085.44
2024-01-18T10:00:28.053Z,99090.06
2024-01-18T10:02:58.026Z,99084.13
2024-01-18T10:05:29.826Z,99092.78
2024-01-18T10:07:59.829Z,99077.41
2024-01-18T10:10:30.003Z,99092.94
2024-01-18T10:12:59.926Z,99083.81
2024-01-18T10:15:38.376Z,99094.19
2024-01-18T10:18:09.354Z,99094.47
2024-01-18T10:20:39.883Z,99081.47
2024-01-18T10:23:09.845Z,99109.16
2024-01-18T10:25:40.983Z,99100.94
2024-01-18T10:28:11.562Z,99106.38
2024-01-18T10:30:44.514Z,99116.28
2024-01-18T10:33:14.650Z,99073.81
2024-01-18T10:35:47.194Z,99118.13
2024-01-18T10:38:17.365Z,99122.69
2024-01-18T10:40:54.772Z,99115.03
2024-01-18T10:43:25.281Z,99127.16
2024-01-18T10:45:58.153Z,99136.41
2024-01-18T10:48:29.286Z,99146.47
2024-01-18T10:50:59.969Z,99138.91
2024-01-18T10:53:32.874Z,99137.34
2024-01-18T10:56:05.492Z,99140.78
2024-01-18T10:58:35.873Z,99135.75
2024-01-18T11:01:09.395Z,99148.94
2024-01-18T11:03:40.846Z,99143.38
2024-01-18T11:06:13.672Z,99139.56
2024-01-18T11:08:45.010Z,99126.50
2024-01-18T11:11:15.607Z,99155.25
2024-01-18T11:13:46.464Z,99144.81
2024-01-18T11:16:18.962Z,99158.50
2024-01-18T11:18:53.692Z,99165.06
2024-01-18T11:21:29.175Z,99168.03
2024-01-18T11:23:59.613Z,99169.00
2024-01-18T11:26:29.781Z,99174.06
2024-01-18T11:29:26.134Z,99177.75
2024-01-18T11:31:58.762Z,99170.41
2024-01-18T11:34:35.905Z,99178.19
2024-01-18T11:37:14.028Z,99171.38
2024-01-18T11:40:07.175Z,99184.13
2024-01-18T11:42:38.480Z,99174.06
2024-01-18T11:45:09.887Z,99172.31
2024-01-18T11:47:43.528Z,99175.53
2024-01-18T11:50:15.038Z,99171.44
2024-01-18T11:52:46.276Z,99177.75
2024-01-18T11:55:19.057Z,99173.50
2024-01-18T11:57:51.523Z,99169.34
2024-01-18T12:00:22.829Z,99174.53
2024-01-18T12:02:55.606Z,99172.28
2024-01-18T12:05:25.834Z,99180.28
2024-01-18T12:07:55.789Z,99147.97
2024-01-18T12:10:27.986Z,99185.28
2024-01-18T12:13:00.761Z,99198.44
2024-01-18T12:15:33.516Z,99200.81
2024-01-18T12:18:06.375Z,99206.91
2024-01-18T12:20:39.353Z,99189.03
2024-01-18T12:23:17.484Z,99199.88
2024-01-18T12:25:49.456Z,99205.13
2024-01-18T12:28:19.706Z,99204.81
2024-01-18T12:30:52.347Z,99210.69
2024-01-18T12:33:25.244Z,99218.72
2024-01-18T12:35:55.213Z,99214.53
2024-01-18T12:38:27.260Z,99220.50
2024-01-18T12:40:57.252Z,99225.50
2024-01-18T12:43:27.842Z,99222.53
2024-01-18T12:45:58.284Z,99230.09
2024-01-18T12:48:31.718Z,99234.66
2024-01-18T12:51:03.248Z,99227.31
2024-01-18T12:53:33.421Z,99230.69
2024-01-18T12:56:05.384Z,99228.59
2024-01-18T12:58:35.477Z,99237.47
2024-01-18T13:01:06.131Z,99243.06
2024-01-18T13:03:42.054Z,99242.47
2024-01-18T13:06:13.575Z,99253.44
2024-01-18T13:08:43.658Z,99266.81
2024-01-18T13:11:13.711Z,99272.97
2024-01-18T13:13:43.729Z,99270.19
2024-01-18T13:16:13.597Z,99280.66
2024-01-18T13:18:46.570Z,99280.47
2024-01-18T13:21:16.522Z,99282.31
2024-01-18T13:23:46.431Z,99290.91
2024-01-18T13:26:16.395Z,99297.25
2024-01-18T13:28:46.752Z,99304.25
2024-01-18T13:31:17.736Z,99299.25
2024-01-18T13:33:50.375Z,99306.69
2024-01-18T13:36:20.501Z,99290.91
2024-01-18T13:38:50.620Z,99313.19
2024-01-18T13:41:21.784Z,99325.41
2024-01-18T13:43:52.435Z,99325.41
2024-01-18T13:46:25.005Z,99331.41
2024-01-18T13:48:57.562Z,99339.38
2024-01-18T13:51:27.673Z,99337.78
2024-01-18T13:53:57.845Z,99350.13
2024-01-18T13:56:28.128Z,99364.13
2024-01-18T13:58:58.478Z,99370.72
2024-01-18T14:01:28.539Z,99368.09
2024-01-18T14:04:01.176Z,99374.91
2024-01-18T14:06:31.319Z,99381.09
2024-01-18T14:09:01.702Z,99378.31
2024-01-18T14:11:31.651Z,99388.69
2024-01-18T14:14:02.055Z,99390.28
2024-01-18T14:16:32.140Z,99400.41
2024-01-18T14:19:05.118Z,99402.44
2024-01-18T14:21:34.997Z,99409.81
2024-01-18T14:24:05.112Z,99422.63
2024-01-18T14:26:35.057Z,99427.97
2024-01-18T14:29:11.872Z,99412.72
2024-01-18T14:31:41.906Z,99416.63
2024-01-18T14:34:14.608Z,99442.13
2024-01-18T14:36:44.757Z,99437.41
2024-01-18T14:39:16.804Z,99453.00
2024-01-18T14:41:46.952Z,99455.94
2024-01-18T14:44:16.780Z,99452.91
2024-01-18T14:46:47.503Z,99455.81
2024-01-18T14:49:23.635Z,99463.28
2024-01-18T14:51:53.814Z,99470.94
2024-01-18T14:54:23.833Z,99475.44
2024-01-18T14:56:54.349Z,99480.44
2024-01-18T14:59:24.577Z,99495.31
2024-01-18T15:01:54.416Z,99510.16
2024-01-18T15:04:27.140Z,99503.41
2024-01-18T15:06:57.084Z,99517.19
2024-01-18T15:09:26.978Z,99524.75
2024-01-18T15:11:56.897Z,99528.44
2024-01-18T15:14:26.710Z,99521.09
2024-01-18T15:16:56.709Z,99543.59
2024-01-18T15:19:29.614Z,99554.84
2024-01-18T15:21:59.905Z,99560.66
2024-01-18T15:24:30.037Z,99569.00
2024-01-18T15:27:00.066Z,99568.53
2024-01-18T15:29:31.202Z,99569.66
2024-01-18T15:32:01.587Z,99576.41
2024-01-18T15:34:35.587Z,99595.69
2024-01-18T15:37:06.507Z,99589.59
2024-01-18T15:39:36.984Z,99599.09
2024-01-18T15:42:07.674Z,99598.28
2024-01-18T15:44:37.792Z,99608.09
2024-01-18T15:47:14.914Z,99609.22
2024-01-18T15:49:47.678Z,99611.13
2024-01-18T15:52:17.418Z,99633.31
2024-01-18T15:54:47.485Z,99632.00
2024-01-18T15:57:17.611Z,99630.75
2024-01-18T15:59:47.432Z,99648.09
2024-01-18T16:02:17.526Z,99642.13
2024-01-18T16:04:51.591Z,99657.72
2024-01-18T16:07:21.722Z,99669.13
2024-01-18T16:09:51.820Z,99668.00
2024-01-18T16:12:21.819Z,99693.25
2024-01-18T16:14:51.923Z,99696.94
2024-01-18T16:17:21.814Z,99697.41
2024-01-18T16:19:54.463Z,99698.72
2024-01-18T16:22:24.358Z,99703.97
2024-01-18T16:24:54.179Z,99707.63
2024-01-18T16:27:24.083Z,99717.38
2024-01-18T16:30:01.834Z,99720.88
2024-01-18T16:32:39.560Z,99731.50
2024-01-18T16:35:13.583Z,99744.34
2024-01-18T16:37:43.821Z,99748.56
2024-01-18T16:40:14.757Z,99751.78
2024-01-18T16:42:44.742Z,99760.50
2024-01-18T16:45:15.012Z,99767.09
2024-01-18T16:47:45.015Z,99768.88
2024-01-18T16:50:17.733Z,99763.16
2024-01-18T16:55:19.532Z,99790.72
2024-01-18T16:57:49.607Z,99797.63
2024-01-18T17:00:19.813Z,99803.56
2024-01-18T17:02:49.791Z,99804.03
2024-01-18T17:05:22.693Z,99795.78
2024-01-18T17:07:53.632Z,99820.28
2024-01-18T17:10:23.549Z,99823.16
2024-01-18T17:12:53.425Z,99824.34
2024-01-18T17:15:23.564Z,99833.63
2024-01-18T17:17:54.085Z,99842.06
2024-01-18T17:20:30.621Z,99847.09
2024-01-18T17:23:01.433Z,99838.75
2024-01-18T17:25:31.587Z,99847.53
2024-01-18T17:28:01.777Z,99861.72
2024-01-18T17:30:31.855Z,99862.56
2024-01-18T17:33:01.934Z,99872.50
2024-01-18T17:35:34.739Z,99863.28
2024-01-18T17:38:04.419Z,99882.44
2024-01-18T17:40:34.303Z,99893.56
2024-01-18T17:43:04.339Z,99898.44
2024-01-18T17:45:38.401Z,99897.69
2024-01-18T17:48:10.982Z,99868.81
2024-01-18T17:50:44.697Z,99909.16
2024-01-18T17:53:14.544Z,99915.16
2024-01-18T17:55:47.256Z,99913.69
2024-01-18T17:58:17.204Z,99925.16
2024-01-18T18:00:47.440Z,99923.69
2024-01-18T18:03:17.405Z,99934.06
2024-01-18T18:05:50.047Z,99922.66
2024-01-18T18:08:19.976Z,99939.38
2024-01-18T18:10:50.053Z,99945.72
2024-01-18T18:13:20.644Z,99951.91
2024-01-18T18:15:51.425Z,99960.16
2024-01-18T18:18:21.557Z,99946.81
2024-01-18T18:20:54.176Z,99960.03
2024-01-18T18:23:24.235Z,99972.84
2024-01-18T18:25:54.190Z,99968.84
2024-01-18T18:28:23.968Z,99975.84
2024-01-18T18:30:58.080Z,99988.50
2024-01-18T18:33:28.786Z,99986.06
2024-01-18T18:36:02.239Z,99991.88
2024-01-18T18:38:33.691Z,99992.00
2024-01-18T18:41:04.768Z,99991.75
2024-01-18T18:43:38.705Z,100006.69
2024-01-18T18:46:10.124Z,99974.88
2024-01-18T18:48:39.957Z,100004.69
2024-01-18T18:51:13.042Z,100022.50
2024-01-18T18:53:43.199Z,100022.63
2024-01-18T18:56:13.290Z,100026.50
2024-01-18T18:58:43.236Z,100025.81
2024-01-18T19:01:13.122Z,100018.53
2024-01-18T19:03:44.401Z,100037.00
2024-01-18T19:06:17.359Z,100001.53
2024-01-18T19:08:47.394Z,100042.38
2024-01-18T19:11:17.415Z,100041.28
2024-01-18T19:13:47.399Z,100048.03
2024-01-18T19:16:17.561Z,100061.75
2024-01-18T19:18:47.561Z,100052.41
2024-01-18T19:21:20.132Z,100069.38
2024-01-18T19:23:50.018Z,100079.19
2024-01-18T19:26:20.310Z,100082.44
2024-01-18T19:28:50.165Z,100082.03
2024-01-18T19:31:20.376Z,100082.41
2024-01-18T19:33:50.349Z,100091.25
2024-01-18T19:36:22.880Z,100081.50
2024-01-18T19:38:54.300Z,100091.59
2024-01-18T19:41:26.899Z,100093.84
2024-01-18T19:43:56.920Z,100105.00
2024-01-18T19:46:26.784Z,100121.28
2024-01-18T19:48:57.777Z,100128.22
2024-01-18T19:51:30.376Z,100121.03
2024-01-18T19:54:00.611Z,100124.78
2024-01-18T19:56:30.652Z,100122.06
2024-01-18T19:59:00.763Z,100141.69
2024-01-18T20:01:30.641Z,100145.19
2024-01-18T20:04:01.736Z,100148.25
2024-01-18T20:06:34.234Z,100146.13
2024-01-18T20:09:04.317Z,100143.81
2024-01-18T20:11:34.393Z,100126.22
2024-01-18T20:14:05.155Z,100162.91
2024-01-18T20:16:35.187Z,100166.22
2024-01-18T20:19:05.063Z,100172.06
2024-01-18T20:21:37.688Z,100179.41
2024-01-18T20:24:08.217Z,100181.31
2024-01-18T20:26:41.638Z,100192.16
2024-01-18T20:29:12.248Z,100194.03
2024-01-18T20:31:44.325Z,100196.59
2024-01-18T20:34:14.603Z,100204.72
2024-01-18T20:36:47.774Z,100204.03
2024-01-18T20:39:17.776Z,100186.97
2024-01-18T20:41:47.797Z,100219.13
2024-01-18T20:44:18.018Z,100211.81
2024-01-18T20:46:47.977Z,100234.91
2024-01-18T20:49:17.939Z,100226.53
2024-01-18T20:51:50.618Z,100210.88
2024-01-18T20:54:21.018Z,100239.53
2024-01-18T20:56:51.003Z,100245.34
2024-01-18T20:59:21.198Z,100245.47
2024-01-18T21:01:51.099Z,100250.00
2024-01-18T21:04:21.347Z,100258.38
2024-01-18T21:06:54.198Z,100258.63
2024-01-18T21:09:25.051Z,100263.03
2024-01-18T21:11:54.933Z,100261.28
2024-01-18T21:14:24.777Z,100249.25
2024-01-18T21:16:54.657Z,100265.88
2024-01-18T21:19:24.626Z,100266.22
2024-01-18T21:21:57.197Z,100274.59
2024-01-18T21:24:27.220Z,100270.28
2024-01-18T21:26:57.327Z,100276.47
2024-01-18T21:29:28.774Z,100266.38
2024-01-18T21:31:58.665Z,100283.91
2024-01-18T21:34:28.583Z,100284.97
2024-01-18T21:37:01.242Z,100283.63
2024-01-18T21:39:31.264Z,100283.34
2024-01-18T21:42:01.119Z,100279.16
2024-01-18T21:44:35.194Z,100278.69
2024-01-18T21:47:05.676Z,100293.78
2024-01-18T21:49:38.048Z,100278.75
2024-01-18T21:52:11.261Z,100306.59
2024-01-18T21:54:40.905Z,100306.59
2024-01-18T21:57:10.892Z,100313.09
2024-01-18T21:59:43.402Z,100313.09
2024-01-18T22:02:14.622Z,100319.91
2024-01-18T22:04:45.085Z,100286.03
2024-01-18T22:07:21.448Z,100338.28
2024-01-18T22:09:51.488Z,100331.84
2024-01-18T22:12:21.328Z,100327.16
2024-01-18T22:14:51.654Z,100328.78
2024-01-18T22:17:21.613Z,100335.34
2024-01-18T22:20:00.977Z,100330.94
2024-01-18T22:22:37.434Z,100329.91
2024-01-18T22:25:09.053Z,100338.50
2024-01-18T22:27:38.834Z,100337.63
2024-01-18T22:30:13.242Z,100341.81
2024-01-18T22:32:43.335Z,100347.94
2024-01-18T22:35:13.255Z,100350.13
2024-01-18T22:37:45.842Z,100353.25
2024-01-18T22:40:16.190Z,100341.53
2024-01-18T22:42:46.510Z,100350.88
2024-01-18T22:45:17.552Z,100349.94
2024-01-18T22:47:47.624Z,100360.13
2024-01-18T22:50:17.858Z,100362.91
2024-01-18T22:52:50.443Z,100368.72
2024-01-18T22:55:20.557Z,100369.66
2024-01-18T22:57:50.419Z,100367.84
2024-01-18T23:00:21.391Z,100355.66
2024-01-18T23:02:54.390Z,100361.59
2024-01-18T23:05:24.722Z,100371.00
2024-01-18T23:07:57.454Z,100369.16
2024-01-18T23:10:28.493Z,100352.81
2024-01-18T23:12:58.517Z,100371.72
2024-01-18T23:15:28.565Z,100378.97
2024-01-18T23:17:58.444Z,100381.00
2024-01-18T23:20:28.655Z,100379.03
2024-01-18T23:23:01.088Z,100377.81
2024-01-18T23:25:31.033Z,100378.63
2024-01-18T23:28:01.692Z,100365.28
2024-01-18T23:30:31.513Z,100391.41
2024-01-18T23:33:01.951Z,100391.16
2024-01-18T23:35:31.992Z,100386.28
2024-01-18T23:38:05.738Z,100397.91
2024-01-18T23:40:36.396Z,100397.09
2024-01-18T23:43:06.611Z,100401.66
2024-01-18T23:45:36.448Z,100400.97
2024-01-18T23:48:07.992Z,100402.47
2024-01-18T23:50:38.118Z,100382.88
2024-01-18T23:53:10.844Z,100400.25
2024-01-18T23:55:40.858Z,100412.94
2024-01-18T23:58:10.751Z,100414.34
